createdAt,value
2023-06-17T00:01:49.040Z,10.10
2023-06-17T00:04:15.815Z,9.80
2023-06-17T00:06:42.634Z,9.50
2023-06-17T00:09:09.510Z,9.50
2023-06-17T00:11:36.299Z,9.00
2023-06-17T00:14:03.611Z,8.10
2023-06-17T00:16:33.901Z,7.40
2023-06-17T00:19:01.121Z,7.70
2023-06-17T00:21:27.858Z,7.00
2023-06-17T00:23:54.744Z,6.80
2023-06-17T00:26:21.511Z,6.90
2023-06-17T00:28:49.108Z,6.70
2023-06-17T00:31:17.784Z,7.30
2023-06-17T00:33:44.864Z,7.40
2023-06-17T00:36:11.686Z,7.90
2023-06-17T00:38:38.643Z,8.90
2023-06-17T00:41:05.416Z,9.10
2023-06-17T00:43:32.237Z,8.60
2023-06-17T00:45:59.968Z,8.70
2023-06-17T00:48:27.118Z,7.40
2023-06-17T00:50:54.018Z,6.90
2023-06-17T00:53:20.892Z,6.70
2023-06-17T00:55:48.141Z,6.80
2023-06-17T00:58:17.201Z,6.90
2023-06-17T01:00:43.980Z,6.80
2023-06-17T01:03:10.909Z,6.60
2023-06-17T01:05:39.855Z,6.80
2023-06-17T01:08:37.983Z,6.60
2023-06-17T01:11:04.765Z,6.50
2023-06-17T01:13:35.422Z,6.80
2023-06-17T01:16:04.019Z,6.30
2023-06-17T01:18:32.673Z,6.60
2023-06-17T01:21:00.273Z,6.60
2023-06-17T01:23:33.138Z,6.90
2023-06-17T01:26:02.903Z,6.70
2023-06-17T01:28:30.758Z,6.40
2023-06-17T01:30:58.600Z,6.40
2023-06-17T01:33:26.578Z,6.30
2023-06-17T01:36:03.514Z,6.40
2023-06-17T01:38:34.682Z,6.60
2023-06-17T01:41:05.781Z,6.60
2023-06-17T01:43:36.662Z,7.30
2023-06-17T01:46:05.564Z,6.90
2023-06-17T01:48:32.914Z,6.80
2023-06-17T01:50:59.997Z,6.50
2023-06-17T01:53:27.908Z,6.20
2023-06-17T01:55:55.428Z,5.60
2023-06-17T01:58:22.562Z,6.40
2023-06-17T02:00:49.414Z,6.60
2023-06-17T02:03:17.368Z,6.80
2023-06-17T02:05:45.885Z,6.30
2023-06-17T02:08:15.339Z,6.70
2023-06-17T02:10:42.632Z,6.00
2023-06-17T02:13:09.483Z,6.50
2023-06-17T02:15:36.684Z,6.00
2023-06-17T02:18:03.863Z,6.40
2023-06-17T02:20:30.716Z,5.80
2023-06-17T02:22:57.511Z,6.30
2023-06-17T02:25:24.376Z,5.80
2023-06-17T02:27:51.393Z,5.70
2023-06-17T02:30:18.667Z,6.00
2023-06-17T02:32:45.902Z,5.40
2023-06-17T02:35:12.846Z,5.00
2023-06-17T02:37:39.969Z,5.50
2023-06-17T02:40:10.074Z,5.30
2023-06-17T02:42:37.754Z,5.60
2023-06-17T02:45:05.959Z,5.90
2023-06-17T02:47:32.739Z,6.60
2023-06-17T02:49:59.671Z,6.20
2023-06-17T02:52:26.742Z,7.20
2023-06-17T02:54:53.679Z,6.50
2023-06-17T02:57:21.832Z,7.20
2023-06-17T02:59:48.935Z,6.90
2023-06-17T03:02:16.024Z,7.00
2023-06-17T03:04:43.494Z,6.90
2023-06-17T03:07:13.283Z,7.40
2023-06-17T03:09:40.133Z,7.50
2023-06-17T03:12:07.632Z,7.30
2023-06-17T03:14:34.895Z,7.10
2023-06-17T03:17:04.348Z,7.40
2023-06-17T03:19:31.340Z,6.80
2023-06-17T03:21:58.112Z,6.60
2023-06-17T03:24:26.829Z,6.50
2023-06-17T03:26:54.830Z,6.20
2023-06-17T03:29:22.294Z,6.70
2023-06-17T03:31:52.687Z,6.60
2023-06-17T03:34:20.402Z,6.70
2023-06-17T03:36:48.599Z,6.70
2023-06-17T03:39:15.944Z,6.60
2023-06-17T03:41:43.388Z,6.40
2023-06-17T03:44:10.719Z,6.70
2023-06-17T03:46:38.304Z,6.70
2023-06-17T03:49:05.581Z,6.80
2023-06-17T03:51:33.474Z,8.10
2023-06-17T03:54:00.789Z,8.40
2023-06-17T03:56:28.838Z,8.30
2023-06-17T03:58:55.723Z,8.40
2023-06-17T04:01:22.788Z,9.00
2023-06-17T04:03:50.290Z,9.30
2023-06-17T04:06:17.948Z,10.70
2023-06-17T04:08:45.259Z,10.40
2023-06-17T04:11:14.659Z,9.60
2023-06-17T04:13:41.431Z,11.10
2023-06-17T04:16:08.452Z,12.40
2023-06-17T04:18:35.407Z,13.20
2023-06-17T04:21:03.004Z,12.40
2023-06-17T04:23:31.547Z,11.70
2023-06-17T04:25:59.439Z,12.40
2023-06-17T04:28:26.302Z,12.10
2023-06-17T04:30:54.208Z,12.40
2023-06-17T04:33:21.507Z,14.30
2023-06-17T04:35:48.553Z,13.90
2023-06-17T04:38:15.844Z,13.80
2023-06-17T04:40:43.235Z,10.90
2023-06-17T04:43:11.204Z,14.00
2023-06-17T04:45:40.517Z,12.90
2023-06-17T04:48:08.257Z,13.10
2023-06-17T04:50:35.181Z,14.10
2023-06-17T04:53:04.840Z,15.00
2023-06-17T04:55:37.019Z,15.30
2023-06-17T04:58:05.747Z,14.10
2023-06-17T05:00:44.442Z,15.40
2023-06-17T05:03:15.127Z,15.80
2023-06-17T05:05:42.316Z,15.90
2023-06-17T05:08:09.279Z,17.70
2023-06-17T05:10:36.058Z,18.50
2023-06-17T05:13:03.780Z,18.10
2023-06-17T05:15:32.214Z,16.70
2023-06-17T05:17:59.095Z,17.00
2023-06-17T05:20:25.910Z,19.20
2023-06-17T05:22:52.765Z,17.40
2023-06-17T05:25:19.708Z,21.80
2023-06-17T05:27:46.569Z,21.60
2023-06-17T05:30:14.411Z,20.80
2023-06-17T05:32:44.332Z,19.70
2023-06-17T05:35:11.376Z,20.50
2023-06-17T05:37:38.677Z,20.50
2023-06-17T05:40:06.526Z,18.70
2023-06-17T05:42:34.796Z,18.10
2023-06-17T05:45:01.774Z,19.50
2023-06-17T05:47:30.805Z,18.40
2023-06-17T05:49:58.222Z,18.90
2023-06-17T05:52:25.547Z,19.10
2023-06-17T05:54:52.845Z,19.80
2023-06-17T05:57:19.820Z,18.10
2023-06-17T05:59:47.178Z,19.40
2023-06-17T06:02:14.054Z,18.80
2023-06-17T06:04:40.892Z,18.00
2023-06-17T06:07:08.698Z,18.20
2023-06-17T06:09:35.506Z,19.00
2023-06-17T06:12:02.625Z,19.40
2023-06-17T06:14:29.429Z,17.50
2023-06-17T06:16:56.870Z,17.80
2023-06-17T06:19:23.776Z,18.70
2023-06-17T06:21:51.073Z,17.90
2023-06-17T06:24:17.936Z,19.70
2023-06-17T06:26:44.766Z,17.40
2023-06-17T06:29:14.569Z,14.80
2023-06-17T06:31:44.634Z,16.30
2023-06-17T06:34:12.153Z,16.50
2023-06-17T06:36:38.953Z,16.70
2023-06-17T06:39:05.875Z,16.20
2023-06-17T06:41:32.815Z,16.60
2023-06-17T06:44:04.856Z,16.60
2023-06-17T06:46:33.033Z,15.70
2023-06-17T06:49:00.224Z,15.90
2023-06-17T06:51:27.588Z,15.60
2023-06-17T06:53:54.957Z,15.60
2023-06-17T06:56:21.908Z,15.90
2023-06-17T06:58:48.701Z,14.90
2023-06-17T07:01:15.854Z,14.30
2023-06-17T07:03:43.181Z,14.40
2023-06-17T07:06:10.292Z,14.10
2023-06-17T07:08:37.382Z,13.90
2023-06-17T07:11:04.173Z,15.20
2023-06-17T07:13:33.091Z,14.90
2023-06-17T07:15:59.938Z,13.70
2023-06-17T07:18:26.706Z,13.40
2023-06-17T07:20:53.505Z,14.50
2023-06-17T07:23:20.635Z,13.30
2023-06-17T07:25:48.262Z,13.80
2023-06-17T07:28:16.019Z,14.00
2023-06-17T07:30:43.086Z,13.90
2023-06-17T07:33:10.000Z,12.40
2023-06-17T07:35:37.669Z,12.00
2023-06-17T07:38:04.761Z,12.10
2023-06-17T07:40:31.634Z,13.80
2023-06-17T07:42:58.387Z,13.30
2023-06-17T07:45:25.267Z,13.00
2023-06-17T07:47:52.035Z,13.40
2023-06-17T07:50:19.065Z,13.90
2023-06-17T07:52:46.101Z,13.20
2023-06-17T07:55:13.275Z,12.10
2023-06-17T07:57:40.065Z,11.90
2023-06-17T08:00:11.394Z,11.90
2023-06-17T08:02:41.468Z,11.30
2023-06-17T08:05:09.869Z,10.20
2023-06-17T08:07:37.346Z,10.60
2023-06-17T08:10:08.000Z,9.20
2023-06-17T08:12:36.673Z,10.40
2023-06-17T08:15:04.146Z,10.10
2023-06-17T08:17:30.997Z,9.00
2023-06-17T08:19:57.911Z,8.90
2023-06-17T08:22:24.693Z,10.40
2023-06-17T08:24:51.518Z,8.50
2023-06-17T08:27:18.464Z,9.50
2023-06-17T08:29:45.258Z,9.00
2023-06-17T08:32:12.021Z,8.40
2023-06-17T08:34:38.836Z,8.00
2023-06-17T08:37:06.330Z,7.40
2023-06-17T08:39:33.269Z,7.70
2023-06-17T08:42:00.554Z,7.50
2023-06-17T08:44:30.372Z,7.60
2023-06-17T08:46:59.269Z,8.00
2023-06-17T08:49:27.964Z,8.00
2023-06-17T08:51:55.095Z,7.30
2023-06-17T08:54:22.844Z,6.40
2023-06-17T08:56:49.705Z,7.20
2023-06-17T08:59:16.560Z,7.50
2023-06-17T09:01:44.850Z,8.10
2023-06-17T09:04:13.897Z,7.60
2023-06-17T09:06:41.220Z,6.90
2023-06-17T09:09:07.994Z,6.20
2023-06-17T09:11:35.513Z,7.20
2023-06-17T09:14:02.817Z,6.50
2023-06-17T09:16:32.109Z,7.40
2023-06-17T09:19:00.792Z,6.70
2023-06-17T09:21:28.664Z,6.40
2023-06-17T09:23:57.532Z,6.30
2023-06-17T09:26:27.053Z,7.20
2023-06-17T09:28:53.853Z,6.20
2023-06-17T09:31:20.615Z,6.50
2023-06-17T09:33:48.053Z,6.50
2023-06-17T09:36:15.826Z,6.60
2023-06-17T09:38:42.859Z,6.90
2023-06-17T09:41:15.934Z,5.80
2023-06-17T09:46:11.326Z,5.50
2023-06-17T09:48:40.032Z,5.80
2023-06-17T09:51:11.038Z,5.20
2023-06-17T09:53:39.423Z,5.40
2023-06-17T09:56:12.700Z,5.50
2023-06-17T09:58:42.089Z,5.70
2023-06-17T10:01:12.518Z,5.90
2023-06-17T10:03:41.236Z,6.30
2023-06-17T10:06:11.514Z,5.80
2023-06-17T10:08:43.094Z,5.40
2023-06-17T10:11:13.212Z,5.80
2023-06-17T10:13:41.423Z,6.20
2023-06-17T10:16:13.392Z,5.60
2023-06-17T10:18:43.040Z,5.90
2023-06-17T10:21:12.793Z,5.80
2023-06-17T10:23:42.273Z,7.40
2023-06-17T10:26:09.528Z,7.40
2023-06-17T10:28:55.066Z,4.60
2023-06-17T10:31:27.550Z,4.70
2023-06-17T10:33:56.542Z,4.60
2023-06-17T10:36:25.485Z,5.00
2023-06-17T10:38:56.528Z,4.60
2023-06-17T10:41:44.026Z,4.80
2023-06-17T10:44:41.424Z,5.10
2023-06-17T10:47:24.297Z,4.60
2023-06-17T10:49:54.166Z,4.60
2023-06-17T10:52:21.472Z,4.60
2023-06-17T10:54:54.512Z,4.30
2023-06-17T10:57:37.350Z,4.40
2023-06-17T11:00:11.079Z,4.40
2023-06-17T11:02:39.730Z,4.20
2023-06-17T11:05:08.488Z,4.50
2023-06-17T11:07:35.522Z,3.70
2023-06-17T11:10:03.861Z,4.10
2023-06-17T11:12:31.142Z,3.70
2023-06-17T11:15:01.458Z,3.80
2023-06-17T11:17:28.901Z,3.40
2023-06-17T11:19:56.543Z,3.80
2023-06-17T11:22:23.625Z,3.50
2023-06-17T11:24:50.534Z,3.40
2023-06-17T11:27:18.546Z,3.30
2023-06-17T11:29:46.172Z,3.40
2023-06-17T11:32:13.475Z,3.60
2023-06-17T11:34:42.743Z,3.40
2023-06-17T11:37:12.585Z,3.40
2023-06-17T11:39:40.183Z,3.40
2023-06-17T11:42:08.337Z,3.70
2023-06-17T11:44:36.247Z,3.30
2023-06-17T11:47:04.459Z,3.00
2023-06-17T11:49:31.516Z,2.90
2023-06-17T11:52:06.979Z,3.00
2023-06-17T11:54:34.214Z,3.10
2023-06-17T11:57:01.460Z,3.00
2023-06-17T11:59:29.667Z,3.10
2023-06-17T12:01:57.092Z,3.00
2023-06-17T12:04:24.081Z,2.90
2023-06-17T12:06:51.022Z,2.60
2023-06-17T12:09:17.886Z,2.90
2023-06-17T12:11:44.823Z,2.40
2023-06-17T12:14:13.358Z,2.70
2023-06-17T12:16:42.474Z,2.60
2023-06-17T12:19:20.662Z,2.70
2023-06-17T12:21:47.513Z,2.80
2023-06-17T12:24:16.725Z,2.50
2023-06-17T12:26:44.433Z,2.50
2023-06-17T12:29:24.457Z,2.50
2023-06-17T12:31:52.766Z,2.60
2023-06-17T12:34:19.552Z,2.70
2023-06-17T12:36:46.340Z,2.90
2023-06-17T12:39:13.134Z,2.50
2023-06-17T12:41:40.222Z,2.10
2023-06-17T12:44:07.106Z,2.50
2023-06-17T12:46:36.824Z,2.50
2023-06-17T12:49:03.966Z,2.40
2023-06-17T12:51:30.967Z,2.60
2023-06-17T12:53:57.718Z,2.40
2023-06-17T12:56:24.483Z,2.60
2023-06-17T12:58:51.228Z,2.60
2023-06-17T13:01:18.214Z,2.40
2023-06-17T13:03:45.201Z,2.80
2023-06-17T13:06:12.125Z,2.80
2023-06-17T13:08:39.451Z,2.70
2023-06-17T13:11:06.534Z,2.80
2023-06-17T13:13:34.377Z,3.00
2023-06-17T13:16:02.794Z,2.70
2023-06-17T13:18:29.506Z,2.80
2023-06-17T13:20:56.636Z,2.90
2023-06-17T13:23:23.389Z,2.90
2023-06-17T13:25:50.357Z,3.10
2023-06-17T13:28:17.267Z,3.80
2023-06-17T13:30:44.732Z,3.30
2023-06-17T13:33:11.680Z,3.30
2023-06-17T13:35:38.684Z,3.40
2023-06-17T13:38:05.466Z,3.40
2023-06-17T13:40:32.315Z,3.80
2023-06-17T13:42:59.129Z,3.10
2023-06-17T13:45:26.512Z,3.60
2023-06-17T13:47:53.355Z,3.40
2023-06-17T13:50:20.487Z,3.80
2023-06-17T13:52:47.500Z,3.60
2023-06-17T13:55:14.300Z,3.40
2023-06-17T13:57:41.069Z,3.30
2023-06-17T14:00:09.800Z,4.40
2023-06-17T14:02:36.800Z,3.40
2023-06-17T14:05:04.676Z,3.50
2023-06-17T14:07:32.281Z,3.10
2023-06-17T14:09:59.396Z,3.30
2023-06-17T14:12:26.462Z,3.20
2023-06-17T14:14:55.035Z,3.20
2023-06-17T14:17:25.108Z,3.00
2023-06-17T14:19:52.525Z,3.60
2023-06-17T14:22:19.324Z,3.20
2023-06-17T14:24:46.420Z,3.40
2023-06-17T14:27:29.640Z,3.60
2023-06-17T14:29:56.451Z,3.10
2023-06-17T14:32:23.495Z,3.10
2023-06-17T14:34:51.510Z,2.80
2023-06-17T14:37:18.786Z,3.00
2023-06-17T14:39:45.686Z,3.10
2023-06-17T14:42:13.057Z,3.10
2023-06-17T14:44:40.668Z,2.70
2023-06-17T14:47:07.894Z,2.90
2023-06-17T14:49:34.960Z,3.10
2023-06-17T14:52:01.820Z,3.20
2023-06-17T14:54:28.712Z,2.80
2023-06-17T14:56:56.048Z,3.40
2023-06-17T14:59:22.871Z,2.90
2023-06-17T15:01:49.638Z,2.80
2023-06-17T15:04:16.706Z,3.00
2023-06-17T15:06:43.544Z,2.70
2023-06-17T15:09:27.098Z,3.00
2023-06-17T15:14:22.500Z,3.40
2023-06-17T15:16:50.156Z,3.30
2023-06-17T15:19:17.708Z,3.30
2023-06-17T15:21:44.705Z,3.30
2023-06-17T15:24:12.124Z,3.20
2023-06-17T15:26:39.166Z,3.40
2023-06-17T15:29:07.485Z,3.20
2023-06-17T15:31:35.120Z,3.30
2023-06-17T15:34:02.148Z,3.40
2023-06-17T15:36:30.050Z,3.40
2023-06-17T15:39:17.301Z,3.40
2023-06-17T15:41:45.479Z,3.60
2023-06-17T15:44:12.414Z,3.40
2023-06-17T15:46:39.292Z,3.20
2023-06-17T15:49:07.484Z,3.30
2023-06-17T15:51:35.646Z,3.30
2023-06-17T15:54:03.898Z,3.40
2023-06-17T15:56:31.228Z,3.70
2023-06-17T15:59:00.830Z,3.70
2023-06-17T16:01:28.560Z,3.60
2023-06-17T16:03:57.777Z,4.20
2023-06-17T16:06:24.746Z,3.90
2023-06-17T16:08:52.488Z,4.00
2023-06-17T16:11:19.777Z,3.50
2023-06-17T16:13:46.633Z,3.90
2023-06-17T16:16:13.457Z,4.00
2023-06-17T16:18:40.347Z,3.70
2023-06-17T16:21:07.103Z,3.60
2023-06-17T16:23:33.947Z,3.60
2023-06-17T16:26:02.209Z,3.60
2023-06-17T16:28:29.036Z,3.20
2023-06-17T16:30:55.896Z,3.80
2023-06-17T16:33:22.766Z,3.60
2023-06-17T16:35:49.629Z,3.70
2023-06-17T16:38:16.437Z,3.90
2023-06-17T16:40:43.263Z,4.10
2023-06-17T16:43:10.076Z,4.00
2023-06-17T16:45:37.122Z,4.40
2023-06-17T16:48:04.258Z,4.10
2023-06-17T16:50:31.104Z,3.70
2023-06-17T16:52:57.866Z,4.20
2023-06-17T16:55:25.015Z,4.30
2023-06-17T16:57:51.791Z,4.60
2023-06-17T17:00:19.655Z,4.80
2023-06-17T17:02:46.712Z,4.70
2023-06-17T17:05:13.549Z,5.00
2023-06-17T17:07:40.371Z,4.80
2023-06-17T17:10:07.396Z,4.70
2023-06-17T17:12:34.203Z,5.30
2023-06-17T17:15:01.169Z,4.90
2023-06-17T17:17:28.190Z,4.60
2023-06-17T17:19:55.657Z,4.50
2023-06-17T17:22:22.467Z,4.60
2023-06-17T17:24:49.276Z,3.90
2023-06-17T17:27:16.160Z,3.80
2023-06-17T17:29:42.928Z,3.80
2023-06-17T17:32:09.806Z,3.90
2023-06-17T17:34:36.594Z,3.80
2023-06-17T17:37:03.538Z,4.40
2023-06-17T17:39:30.527Z,4.20
2023-06-17T17:41:57.303Z,4.20
2023-06-17T17:44:24.053Z,4.20
2023-06-17T17:46:50.908Z,4.10
2023-06-17T17:49:17.723Z,4.00
2023-06-17T17:51:44.452Z,3.90
2023-06-17T17:54:11.300Z,4.10
2023-06-17T17:56:38.587Z,5.10
2023-06-17T17:59:06.366Z,6.20
2023-06-17T18:01:33.178Z,5.50
2023-06-17T18:03:59.939Z,5.10
2023-06-17T18:06:26.899Z,4.90
2023-06-17T18:08:53.715Z,5.30
2023-06-17T18:11:20.555Z,5.10
2023-06-17T18:13:47.422Z,4.70
2023-06-17T18:16:14.500Z,14.50
2023-06-17T18:18:41.405Z,16.80
2023-06-17T18:21:08.159Z,20.10
2023-06-17T18:23:34.918Z,8.10
2023-06-17T18:26:01.754Z,13.30
2023-06-17T18:28:28.773Z,23.20
2023-06-17T18:30:55.552Z,11.60
2023-06-17T18:33:22.523Z,8.30
2023-06-17T18:35:49.441Z,6.00
2023-06-17T18:38:16.808Z,6.40
2023-06-17T18:40:43.712Z,6.00
2023-06-17T18:43:10.684Z,5.70
2023-06-17T18:45:37.647Z,6.40
2023-06-17T18:48:05.398Z,6.60
2023-06-17T18:50:32.336Z,6.50
2023-06-17T18:52:59.138Z,6.30
2023-06-17T18:55:26.008Z,7.40
2023-06-17T18:57:52.742Z,6.70
2023-06-17T19:00:20.253Z,6.20
2023-06-17T19:02:47.509Z,6.50
2023-06-17T19:05:14.368Z,6.30
2023-06-17T19:07:44.614Z,6.10
2023-06-17T19:10:12.423Z,5.70
2023-06-17T19:12:39.581Z,6.30
2023-06-17T19:15:10.024Z,5.30
2023-06-17T19:17:38.737Z,5.80
2023-06-17T19:20:07.925Z,6.40
2023-06-17T19:22:36.844Z,6.40
2023-06-17T19:25:05.541Z,6.40
2023-06-17T19:27:32.662Z,6.70
2023-06-17T19:30:01.739Z,6.40
2023-06-17T19:32:29.543Z,6.50
2023-06-17T19:34:58.810Z,6.10
2023-06-17T19:37:27.957Z,6.50
2023-06-17T19:39:54.792Z,5.70
2023-06-17T19:42:22.035Z,6.60
2023-06-17T19:44:56.982Z,7.10
2023-06-17T19:47:25.788Z,7.90
2023-06-17T19:49:53.942Z,8.20
2023-06-17T19:52:21.254Z,8.60
2023-06-17T19:54:48.608Z,8.80
2023-06-17T19:57:15.936Z,8.40
2023-06-17T19:59:42.798Z,7.10
2023-06-17T20:02:11.119Z,6.80
2023-06-17T20:04:37.872Z,7.00
2023-06-17T20:07:04.845Z,7.00
2023-06-17T20:09:31.688Z,7.10
2023-06-17T20:11:58.457Z,7.50
2023-06-17T20:14:25.228Z,7.70
2023-06-17T20:16:53.093Z,8.30
2023-06-17T20:19:20.144Z,7.40
2023-06-17T20:21:47.171Z,7.60
2023-06-17T20:24:13.971Z,7.60
2023-06-17T20:26:40.820Z,7.30
2023-06-17T20:29:07.578Z,7.90
2023-06-17T20:31:34.347Z,7.20
2023-06-17T20:34:02.232Z,7.00
2023-06-17T20:36:29.503Z,7.50
2023-06-17T20:38:56.579Z,6.80
2023-06-17T20:41:23.315Z,6.90
2023-06-17T20:43:50.128Z,6.50
2023-06-17T20:46:17.450Z,6.50
2023-06-17T20:48:44.398Z,6.70
2023-06-17T20:51:11.360Z,6.80
2023-06-17T20:53:38.415Z,6.70
2023-06-17T20:56:05.210Z,14.10
2023-06-17T20:58:32.189Z,9.10
2023-06-17T21:00:59.076Z,6.90
2023-06-17T21:03:26.158Z,6.30
2023-06-17T21:05:52.968Z,6.40
2023-06-17T21:08:19.929Z,8.00
2023-06-17T21:10:46.684Z,7.00
2023-06-17T21:13:13.605Z,6.70
2023-06-17T21:15:40.629Z,7.20
2023-06-17T21:18:07.433Z,7.20
2023-06-17T21:20:34.258Z,7.50
2023-06-17T21:23:01.045Z,7.10
2023-06-17T21:25:27.875Z,7.40
2023-06-17T21:27:54.639Z,7.30
2023-06-17T21:30:21.640Z,7.10
2023-06-17T21:32:48.680Z,7.20
2023-06-17T21:35:15.729Z,8.00
2023-06-17T21:37:42.473Z,7.70
2023-06-17T21:40:10.206Z,7.40
2023-06-17T21:42:37.651Z,8.30
2023-06-17T21:45:04.852Z,7.50
2023-06-17T21:47:31.816Z,7.30
2023-06-17T21:49:59.518Z,8.00
2023-06-17T21:52:26.343Z,8.20
2023-06-17T21:54:53.132Z,8.10
2023-06-17T21:57:21.043Z,8.50
2023-06-17T21:59:47.824Z,10.10
2023-06-17T22:02:14.783Z,9.10
2023-06-17T22:04:41.612Z,8.20
2023-06-17T22:07:08.469Z,6.80
2023-06-17T22:09:35.321Z,7.20
2023-06-17T22:12:02.247Z,6.60
2023-06-17T22:14:29.034Z,7.60
2023-06-17T22:16:55.761Z,7.60
2023-06-17T22:19:22.786Z,7.80
2023-06-17T22:21:49.606Z,7.60
2023-06-17T22:24:16.454Z,7.60
2023-06-17T22:26:43.255Z,8.50
2023-06-17T22:29:10.015Z,8.70
2023-06-17T22:31:36.810Z,9.40
2023-06-17T22:34:03.645Z,8.30
2023-06-17T22:36:30.414Z,8.70
2023-06-17T22:38:57.240Z,8.30
2023-06-17T22:41:24.213Z,8.80
2023-06-17T22:43:51.135Z,9.00
2023-06-17T22:46:18.033Z,8.30
2023-06-17T22:48:44.807Z,8.20
2023-06-17T22:51:11.581Z,8.40
2023-06-17T22:53:38.357Z,8.80
2023-06-17T22:56:05.263Z,9.20
2023-06-17T22:58:32.079Z,9.20
2023-06-17T23:00:59.380Z,9.20
2023-06-17T23:03:26.675Z,10.00
2023-06-17T23:05:53.489Z,8.60
2023-06-17T23:08:20.236Z,9.00
2023-06-17T23:10:47.164Z,8.30
2023-06-17T23:13:14.039Z,8.00
2023-06-17T23:15:41.167Z,8.00
2023-06-17T23:18:08.446Z,8.50
2023-06-17T23:20:35.275Z,9.00
2023-06-17T23:23:04.168Z,8.50
2023-06-17T23:25:31.664Z,8.10
2023-06-17T23:27:58.477Z,8.20
2023-06-17T23:30:26.041Z,7.60
2023-06-17T23:32:53.424Z,8.70
2023-06-17T23:35:20.654Z,8.70
2023-06-17T23:37:47.559Z,9.30
2023-06-17T23:40:14.505Z,10.10
2023-06-17T23:42:41.636Z,9.90
2023-06-17T23:45:09.193Z,10.00
2023-06-17T23:47:36.277Z,8.90
2023-06-17T23:50:03.224Z,8.90
2023-06-17T23:52:30.086Z,9.10
2023-06-17T23:54:56.865Z,9.60
2023-06-17T23:57:23.654Z,10.70
2023-06-17T23:59:50.412Z,9.80
